sensor_id;sensor_type;location;lat;lon;timestamp;pressure;altitude;pressure_sealevel;temperature;humidity
76205;BME280;64986;55.672;37.628;2022-12-29T00:01:53;99263.09;;;-0.11;77.50
76205;BME280;64986;55.672;37.628;2022-12-29T00:04:18;99256.56;;;-0.15;77.39
76205;BME280;64986;55.672;37.628;2022-12-29T00:06:44;99265.16;;;-0.24;77.73
76205;BME280;64986;55.672;37.628;2022-12-29T00:09:14;99268.19;;;-0.39;77.89
76205;BME280;64986;55.672;37.628;2022-12-29T00:11:40;99262.66;;;-0.53;77.65
76205;BME280;64986;55.672;37.628;2022-12-29T00:14:08;99255.06;;;-0.65;78.08
76205;BME280;64986;55.672;37.628;2022-12-29T00:16:52;99265.41;;;-0.65;78.09
76205;BME280;64986;55.672;37.628;2022-12-29T00:19:17;99258.03;;;-0.50;78.14
76205;BME280;64986;55.672;37.628;2022-12-29T00:22:02;99255.72;;;-0.53;77.69
76205;BME280;64986;55.672;37.628;2022-12-29T00:24:46;99273.25;;;-0.47;77.43
76205;BME280;64986;55.672;37.628;2022-12-29T00:27:28;99266.63;;;-0.59;77.26
76205;BME280;64986;55.672;37.628;2022-12-29T00:30:18;99266.38;;;-0.66;76.75
76205;BME280;64986;55.672;37.628;2022-12-29T00:33:13;99258.19;;;-0.61;76.37
76205;BME280;64986;55.672;37.628;2022-12-29T00:36:02;99283.78;;;-0.68;76.72
76205;BME280;64986;55.672;37.628;2022-12-29T00:38:31;99278.19;;;-0.92;76.77
76205;BME280;64986;55.672;37.628;2022-12-29T00:41:16;99309.63;;;-0.87;76.76
76205;BME280;64986;55.672;37.628;2022-12-29T00:44:01;99294.91;;;-1.06;76.55
76205;BME280;64986;55.672;37.628;2022-12-29T00:46:50;99276.84;;;-0.77;76.44
76205;BME280;64986;55.672;37.628;2022-12-29T00:49:16;99281.19;;;-1.06;76.30
76205;BME280;64986;55.672;37.628;2022-12-29T00:52:07;99286.09;;;-1.03;76.56
76205;BME280;64986;55.672;37.628;2022-12-29T00:54:35;99284.59;;;-1.06;77.10
76205;BME280;64986;55.672;37.628;2022-12-29T00:57:02;99286.66;;;-0.80;75.74
76205;BME280;64986;55.672;37.628;2022-12-29T00:59:28;99300.94;;;-0.96;76.16
76205;BME280;64986;55.672;37.628;2022-12-29T01:01:54;99276.06;;;-0.97;76.31
76205;BME280;64986;55.672;37.628;2022-12-29T01:04:25;99289.78;;;-0.96;75.90
76205;BME280;64986;55.672;37.628;2022-12-29T01:06:52;99279.31;;;-0.95;76.28
76205;BME280;64986;55.672;37.628;2022-12-29T01:09:18;99296.44;;;-0.94;76.37
76205;BME280;64986;55.672;37.628;2022-12-29T01:12:02;99281.75;;;-0.93;76.44
76205;BME280;64986;55.672;37.628;2022-12-29T01:14:28;99279.03;;;-0.92;76.41
76205;BME280;64986;55.672;37.628;2022-12-29T01:16:54;99306.22;;;-0.97;76.20
76205;BME280;64986;55.672;37.628;2022-12-29T01:19:21;99300.25;;;-0.98;76.21
76205;BME280;64986;55.672;37.628;2022-12-29T01:21:47;99305.53;;;-1.09;76.45
76205;BME280;64986;55.672;37.628;2022-12-29T01:24:16;99305.81;;;-0.93;75.83
76205;BME280;64986;55.672;37.628;2022-12-29T01:26:42;99304.31;;;-0.86;75.26
76205;BME280;64986;55.672;37.628;2022-12-29T01:29:08;99310.97;;;-0.93;75.40
76205;BME280;64986;55.672;37.628;2022-12-29T01:31:33;99307.88;;;-0.96;75.53
76205;BME280;64986;55.672;37.628;2022-12-29T01:33:59;99304.97;;;-0.84;75.12
76205;BME280;64986;55.672;37.628;2022-12-29T01:36:25;99316.84;;;-0.91;75.48
76205;BME280;64986;55.672;37.628;2022-12-29T01:38:50;99319.78;;;-1.24;76.01
76205;BME280;64986;55.672;37.628;2022-12-29T01:41:16;99317.72;;;-1.30;76.10
76205;BME280;64986;55.672;37.628;2022-12-29T01:43:45;99310.94;;;-1.22;76.57
76205;BME280;64986;55.672;37.628;2022-12-29T01:46:43;99312.47;;;-1.19;75.84
76205;BME280;64986;55.672;37.628;2022-12-29T01:49:16;99305.16;;;-1.04;75.77
76205;BME280;64986;55.672;37.628;2022-12-29T01:54:31;99320.22;;;-1.09;75.62
76205;BME280;64986;55.672;37.628;2022-12-29T01:57:00;99310.13;;;-1.22;75.92
76205;BME280;64986;55.672;37.628;2022-12-29T01:59:31;99303.72;;;-1.37;76.46
76205;BME280;64986;55.672;37.628;2022-12-29T02:01:58;99311.22;;;-1.25;76.47
76205;BME280;64986;55.672;37.628;2022-12-29T02:04:24;99308.13;;;-1.19;76.25
76205;BME280;64986;55.672;37.628;2022-12-29T02:06:55;99315.59;;;-1.06;76.08
76205;BME280;64986;55.672;37.628;2022-12-29T02:09:23;99320.91;;;-0.98;75.03
76205;BME280;64986;55.672;37.628;2022-12-29T02:11:49;99318.03;;;-1.14;74.89
76205;BME280;64986;55.672;37.628;2022-12-29T02:14:15;99319.50;;;-1.21;75.22
76205;BME280;64986;55.672;37.628;2022-12-29T02:17:06;99315.28;;;-1.42;75.72
76205;BME280;64986;55.672;37.628;2022-12-29T02:39:21;99330.31;;;-1.56;76.77
76205;BME280;64986;55.672;37.628;2022-12-29T02:42:13;99333.94;;;-1.69;76.86
76205;BME280;64986;55.672;37.628;2022-12-29T02:50:17;99338.56;;;-1.72;76.81
76205;BME280;64986;55.672;37.628;2022-12-29T02:53:04;99327.97;;;-1.59;76.30
76205;BME280;64986;55.672;37.628;2022-12-29T02:55:30;99336.31;;;-1.86;77.24
76205;BME280;64986;55.672;37.628;2022-12-29T03:00:37;99341.88;;;-1.51;75.74
76205;BME280;64986;55.672;37.628;2022-12-29T03:08:49;99334.44;;;-1.75;76.13
76205;BME280;64986;55.672;37.628;2022-12-29T03:11:19;99340.47;;;-1.64;76.08
76205;BME280;64986;55.672;37.628;2022-12-29T03:14:14;99330.38;;;-1.77;76.23
76205;BME280;64986;55.672;37.628;2022-12-29T03:17:05;99337.69;;;-1.82;76.71
76205;BME280;64986;55.672;37.628;2022-12-29T03:19:36;99349.22;;;-1.86;77.13
76205;BME280;64986;55.672;37.628;2022-12-29T03:22:08;99339.97;;;-1.58;76.01
76205;BME280;64986;55.672;37.628;2022-12-29T03:24:54;99345.59;;;-1.74;76.09
76205;BME280;64986;55.672;37.628;2022-12-29T03:27:25;99359.56;;;-1.77;75.83
76205;BME280;64986;55.672;37.628;2022-12-29T03:29:56;99354.56;;;-1.69;75.59
76205;BME280;64986;55.672;37.628;2022-12-29T03:32:28;99361.63;;;-1.71;75.85
76205;BME280;64986;55.672;37.628;2022-12-29T03:34:57;99361.59;;;-1.80;75.94
76205;BME280;64986;55.672;37.628;2022-12-29T03:37:27;99346.63;;;-1.86;76.01
76205;BME280;64986;55.672;37.628;2022-12-29T03:39:55;99353.50;;;-1.97;76.85
76205;BME280;64986;55.672;37.628;2022-12-29T03:42:23;99360.31;;;-1.96;76.71
76205;BME280;64986;55.672;37.628;2022-12-29T03:44:54;99358.31;;;-1.82;76.50
76205;BME280;64986;55.672;37.628;2022-12-29T03:47:20;99368.47;;;-1.90;76.40
76205;BME280;64986;55.672;37.628;2022-12-29T03:49:46;99367.09;;;-1.94;76.23
76205;BME280;64986;55.672;37.628;2022-12-29T03:52:12;99372.13;;;-1.93;76.16
76205;BME280;64986;55.672;37.628;2022-12-29T03:54:38;99372.38;;;-1.96;76.24
76205;BME280;64986;55.672;37.628;2022-12-29T03:57:03;99381.44;;;-2.02;76.65
76205;BME280;64986;55.672;37.628;2022-12-29T03:59:29;99385.84;;;-1.92;76.41
76205;BME280;64986;55.672;37.628;2022-12-29T04:01:54;99384.56;;;-1.77;75.88
76205;BME280;64986;55.672;37.628;2022-12-29T04:04:20;99381.75;;;-1.95;76.10
76205;BME280;64986;55.672;37.628;2022-12-29T04:06:45;99387.41;;;-2.01;76.98
76205;BME280;64986;55.672;37.628;2022-12-29T04:09:11;99383.22;;;-2.02;76.90
76205;BME280;64986;55.672;37.628;2022-12-29T04:11:36;99393.88;;;-1.86;76.27
76205;BME280;64986;55.672;37.628;2022-12-29T04:14:02;99387.66;;;-2.04;76.29
76205;BME280;64986;55.672;37.628;2022-12-29T04:16:27;99387.56;;;-2.03;76.69
76205;BME280;64986;55.672;37.628;2022-12-29T04:18:53;99395.03;;;-2.00;76.46
76205;BME280;64986;55.672;37.628;2022-12-29T04:21:18;99391.72;;;-2.11;76.72
76205;BME280;64986;55.672;37.628;2022-12-29T04:23:44;99396.75;;;-2.10;76.58
76205;BME280;64986;55.672;37.628;2022-12-29T04:26:09;99398.91;;;-2.05;76.78
76205;BME280;64986;55.672;37.628;2022-12-29T04:28:36;99384.34;;;-2.16;76.55
76205;BME280;64986;55.672;37.628;2022-12-29T04:31:03;99389.03;;;-2.21;76.97
76205;BME280;64986;55.672;37.628;2022-12-29T04:33:29;99396.91;;;-2.02;76.37
76205;BME280;64986;55.672;37.628;2022-12-29T04:35:55;99387.78;;;-2.06;76.38
76205;BME280;64986;55.672;37.628;2022-12-29T04:38:22;99395.53;;;-2.06;76.38
76205;BME280;64986;55.672;37.628;2022-12-29T04:40:48;99401.00;;;-2.20;76.46
76205;BME280;64986;55.672;37.628;2022-12-29T04:43:14;99403.34;;;-2.17;76.17
76205;BME280;64986;55.672;37.628;2022-12-29T04:45:44;99398.97;;;-2.37;76.86
76205;BME280;64986;55.672;37.628;2022-12-29T04:48:10;99399.16;;;-2.29;76.49
76205;BME280;64986;55.672;37.628;2022-12-29T04:50:35;99402.06;;;-2.22;76.02
76205;BME280;64986;55.672;37.628;2022-12-29T04:53:01;99408.16;;;-2.44;76.46
76205;BME280;64986;55.672;37.628;2022-12-29T04:55:26;99410.78;;;-2.35;76.30
76205;BME280;64986;55.672;37.628;2022-12-29T04:57:52;99408.47;;;-2.38;76.12
76205;BME280;64986;55.672;37.628;2022-12-29T05:00:18;99407.47;;;-2.46;76.39
76205;BME280;64986;55.672;37.628;2022-12-29T05:02:43;99414.72;;;-2.40;76.67
76205;BME280;64986;55.672;37.628;2022-12-29T05:05:09;99411.81;;;-2.47;76.76
76205;BME280;64986;55.672;37.628;2022-12-29T05:07:35;99411.13;;;-2.49;77.28
76205;BME280;64986;55.672;37.628;2022-12-29T05:10:01;99419.97;;;-2.42;76.92
76205;BME280;64986;55.672;37.628;2022-12-29T05:12:30;99426.84;;;-2.31;76.86
76205;BME280;64986;55.672;37.628;2022-12-29T05:14:56;99424.09;;;-2.51;76.67
76205;BME280;64986;55.672;37.628;2022-12-29T05:17:21;99431.75;;;-2.60;77.80
76205;BME280;64986;55.672;37.628;2022-12-29T05:19:47;99427.75;;;-2.53;77.28
76205;BME280;64986;55.672;37.628;2022-12-29T05:22:12;99431.56;;;-2.68;77.33
76205;BME280;64986;55.672;37.628;2022-12-29T05:24:38;99428.06;;;-2.78;77.79
76205;BME280;64986;55.672;37.628;2022-12-29T05:27:03;99429.09;;;-2.70;77.32
76205;BME280;64986;55.672;37.628;2022-12-29T05:29:29;99424.88;;;-2.71;77.79
76205;BME280;64986;55.672;37.628;2022-12-29T05:31:54;99421.78;;;-2.54;76.76
76205;BME280;64986;55.672;37.628;2022-12-29T05:34:20;99428.81;;;-2.56;77.00
76205;BME280;64986;55.672;37.628;2022-12-29T05:36:45;99438.06;;;-2.53;77.36
76205;BME280;64986;55.672;37.628;2022-12-29T05:39:11;99442.25;;;-2.41;76.65
76205;BME280;64986;55.672;37.628;2022-12-29T05:41:36;99443.78;;;-2.49;77.36
76205;BME280;64986;55.672;37.628;2022-12-29T05:44:02;99446.06;;;-2.35;76.91
76205;BME280;64986;55.672;37.628;2022-12-29T05:46:28;99447.28;;;-2.51;76.79
76205;BME280;64986;55.672;37.628;2022-12-29T05:48:53;99454.59;;;-2.56;76.86
76205;BME280;64986;55.672;37.628;2022-12-29T05:51:19;99459.75;;;-2.56;77.30
76205;BME280;64986;55.672;37.628;2022-12-29T05:53:44;99449.84;;;-2.39;77.13
76205;BME280;64986;55.672;37.628;2022-12-29T05:56:10;99449.84;;;-2.39;76.83
76205;BME280;64986;55.672;37.628;2022-12-29T05:58:35;99451.72;;;-2.41;77.10
76205;BME280;64986;55.672;37.628;2022-12-29T06:01:01;99457.25;;;-2.46;76.85
76205;BME280;64986;55.672;37.628;2022-12-29T06:03:26;99454.41;;;-2.43;76.46
76205;BME280;64986;55.672;37.628;2022-12-29T06:05:52;99441.78;;;-2.46;77.16
76205;BME280;64986;55.672;37.628;2022-12-29T06:08:17;99447.63;;;-2.44;76.91
76205;BME280;64986;55.672;37.628;2022-12-29T06:10:43;99454.06;;;-2.38;76.81
76205;BME280;64986;55.672;37.628;2022-12-29T06:13:08;99458.25;;;-2.37;77.25
76205;BME280;64986;55.672;37.628;2022-12-29T06:15:35;99451.00;;;-2.32;77.12
76205;BME280;64986;55.672;37.628;2022-12-29T06:18:00;99457.84;;;-2.21;76.79
76205;BME280;64986;55.672;37.628;2022-12-29T06:20:26;99455.66;;;-2.26;76.40
76205;BME280;64986;55.672;37.628;2022-12-29T06:22:52;99463.69;;;-2.19;77.04
76205;BME280;64986;55.672;37.628;2022-12-29T06:25:17;99451.63;;;-2.19;76.80
76205;BME280;64986;55.672;37.628;2022-12-29T06:27:43;99460.19;;;-2.18;76.71
76205;BME280;64986;55.672;37.628;2022-12-29T06:30:09;99452.69;;;-2.21;76.77
76205;BME280;64986;55.672;37.628;2022-12-29T06:32:35;99449.28;;;-2.22;76.62
76205;BME280;64986;55.672;37.628;2022-12-29T06:35:01;99455.66;;;-2.05;76.85
76205;BME280;64986;55.672;37.628;2022-12-29T06:37:27;99459.31;;;-2.08;76.46
76205;BME280;64986;55.672;37.628;2022-12-29T06:39:53;99463.91;;;-1.90;76.58
76205;BME280;64986;55.672;37.628;2022-12-29T06:42:18;99460.44;;;-2.01;76.50
76205;BME280;64986;55.672;37.628;2022-12-29T06:44:44;99455.94;;;-1.87;75.95
76205;BME280;64986;55.672;37.628;2022-12-29T06:47:10;99462.44;;;-2.04;76.45
76205;BME280;64986;55.672;37.628;2022-12-29T06:49:35;99463.03;;;-2.01;76.16
76205;BME280;64986;55.672;37.628;2022-12-29T06:52:01;99463.72;;;-1.99;76.37
76205;BME280;64986;55.672;37.628;2022-12-29T06:54:30;99469.50;;;-2.06;76.17
76205;BME280;64986;55.672;37.628;2022-12-29T06:56:55;99459.81;;;-2.14;76.75
76205;BME280;64986;55.672;37.628;2022-12-29T06:59:21;99472.88;;;-2.06;76.60
76205;BME280;64986;55.672;37.628;2022-12-29T07:01:46;99461.00;;;-2.18;75.87
76205;BME280;64986;55.672;37.628;2022-12-29T07:04:12;99466.44;;;-2.32;76.17
76205;BME280;64986;55.672;37.628;2022-12-29T07:06:37;99449.19;;;-2.53;76.10
76205;BME280;64986;55.672;37.628;2022-12-29T07:09:03;99465.31;;;-2.39;75.86
76205;BME280;64986;55.672;37.628;2022-12-29T07:11:28;99465.66;;;-2.44;75.80
76205;BME280;64986;55.672;37.628;2022-12-29T07:13:54;99469.16;;;-2.77;76.70
76205;BME280;64986;55.672;37.628;2022-12-29T07:16:19;99475.47;;;-2.70;76.71
76205;BME280;64986;55.672;37.628;2022-12-29T07:18:45;99479.69;;;-2.69;76.56
76205;BME280;64986;55.672;37.628;2022-12-29T07:21:10;99471.59;;;-2.64;76.19
76205;BME280;64986;55.672;37.628;2022-12-29T07:23:37;99472.63;;;-2.67;76.49
76205;BME280;64986;55.672;37.628;2022-12-29T07:26:04;99461.31;;;-2.75;76.58
76205;BME280;64986;55.672;37.628;2022-12-29T07:28:30;99472.56;;;-2.76;76.34
76205;BME280;64986;55.672;37.628;2022-12-29T07:30:58;99472.44;;;-2.75;77.29
76205;BME280;64986;55.672;37.628;2022-12-29T07:33:23;99471.34;;;-2.61;76.56
76205;BME280;64986;55.672;37.628;2022-12-29T07:35:50;99464.56;;;-2.62;76.71
76205;BME280;64986;55.672;37.628;2022-12-29T07:38:16;99469.06;;;-2.43;76.61
76205;BME280;64986;55.672;37.628;2022-12-29T07:40:42;99466.88;;;-2.27;76.90
76205;BME280;64986;55.672;37.628;2022-12-29T07:43:08;99479.47;;;-2.13;76.93
76205;BME280;64986;55.672;37.628;2022-12-29T07:45:33;99471.91;;;-1.93;76.31
76205;BME280;64986;55.672;37.628;2022-12-29T07:47:59;99479.28;;;-1.89;76.33
76205;BME280;64986;55.672;37.628;2022-12-29T07:50:24;99481.41;;;-1.94;75.91
76205;BME280;64986;55.672;37.628;2022-12-29T07:52:50;99495.16;;;-2.05;75.87
76205;BME280;64986;55.672;37.628;2022-12-29T07:55:16;99487.00;;;-2.10;76.12
76205;BME280;64986;55.672;37.628;2022-12-29T07:57:41;99490.50;;;-2.11;76.13
76205;BME280;64986;55.672;37.628;2022-12-29T08:00:07;99487.31;;;-2.03;76.46
76205;BME280;64986;55.672;37.628;2022-12-29T08:02:35;99493.28;;;-1.82;76.30
76205;BME280;64986;55.672;37.628;2022-12-29T08:05:00;99492.03;;;-1.87;75.83
76205;BME280;64986;55.672;37.628;2022-12-29T08:07:26;99492.16;;;-1.68;75.90
76205;BME280;64986;55.672;37.628;2022-12-29T08:09:51;99500.91;;;-1.80;75.44
76205;BME280;64986;55.672;37.628;2022-12-29T08:12:17;99498.69;;;-1.85;75.69
76205;BME280;64986;55.672;37.628;2022-12-29T08:14:43;99510.34;;;-1.70;75.27
76205;BME280;64986;55.672;37.628;2022-12-29T08:17:11;99506.75;;;-1.78;75.70
76205;BME280;64986;55.672;37.628;2022-12-29T08:19:37;99507.09;;;-1.72;75.35
76205;BME280;64986;55.672;37.628;2022-12-29T08:22:03;99498.56;;;-1.62;75.41
76205;BME280;64986;55.672;37.628;2022-12-29T08:24:28;99508.75;;;-1.82;75.36
76205;BME280;64986;55.672;37.628;2022-12-29T08:26:54;99499.66;;;-1.86;75.20
76205;BME280;64986;55.672;37.628;2022-12-29T08:29:19;99505.91;;;-2.00;75.29
76205;BME280;64986;55.672;37.628;2022-12-29T08:31:47;99497.31;;;-2.10;75.55
76205;BME280;64986;55.672;37.628;2022-12-29T08:34:13;99504.28;;;-2.01;75.77
76205;BME280;64986;55.672;37.628;2022-12-29T08:36:38;99509.09;;;-1.96;75.68
76205;BME280;64986;55.672;37.628;2022-12-29T08:39:04;99514.31;;;-1.86;75.42
76205;BME280;64986;55.672;37.628;2022-12-29T08:41:29;99499.31;;;-1.92;74.85
76205;BME280;64986;55.672;37.628;2022-12-29T08:43:55;99508.41;;;-1.77;74.60
76205;BME280;64986;55.672;37.628;2022-12-29T08:46:20;99511.66;;;-1.75;74.36
76205;BME280;64986;55.672;37.628;2022-12-29T08:48:46;99500.97;;;-1.91;74.63
76205;BME280;64986;55.672;37.628;2022-12-29T08:51:11;99499.13;;;-1.59;74.30
76205;BME280;64986;55.672;37.628;2022-12-29T08:53:37;99501.34;;;-1.54;74.49
76205;BME280;64986;55.672;37.628;2022-12-29T08:56:03;99493.56;;;-1.64;74.55
76205;BME280;64986;55.672;37.628;2022-12-29T08:58:29;99505.50;;;-1.63;74.18
76205;BME280;64986;55.672;37.628;2022-12-29T09:00:55;99495.16;;;-1.42;74.24
76205;BME280;64986;55.672;37.628;2022-12-29T09:03:22;99497.25;;;-1.57;74.14
76205;BME280;64986;55.672;37.628;2022-12-29T09:05:50;99489.44;;;-1.46;74.38
76205;BME280;64986;55.672;37.628;2022-12-29T09:08:16;99508.13;;;-1.32;74.29
76205;BME280;64986;55.672;37.628;2022-12-29T09:10:42;99495.03;;;-1.61;74.24
76205;BME280;64986;55.672;37.628;2022-12-29T09:13:07;99503.56;;;-1.50;74.36
76205;BME280;64986;55.672;37.628;2022-12-29T09:15:33;99503.56;;;-1.19;73.75
76205;BME280;64986;55.672;37.628;2022-12-29T09:17:58;99501.56;;;-1.36;73.78
76205;BME280;64986;55.672;37.628;2022-12-29T09:20:24;99504.16;;;-1.06;73.98
76205;BME280;64986;55.672;37.628;2022-12-29T09:22:50;99502.91;;;-1.12;73.41
76205;BME280;64986;55.672;37.628;2022-12-29T09:25:16;99505.63;;;-0.73;73.42
76205;BME280;64986;55.672;37.628;2022-12-29T09:27:42;99504.00;;;-0.64;72.48
76205;BME280;64986;55.672;37.628;2022-12-29T09:30:10;99507.00;;;-0.69;72.40
76205;BME280;64986;55.672;37.628;2022-12-29T09:32:36;99501.31;;;-0.53;72.26
76205;BME280;64986;55.672;37.628;2022-12-29T09:35:02;99491.28;;;-0.17;71.70
76205;BME280;64986;55.672;37.628;2022-12-29T09:37:27;99497.41;;;-0.18;71.86
76205;BME280;64986;55.672;37.628;2022-12-29T09:39:53;99497.69;;;-0.21;71.43
76205;BME280;64986;55.672;37.628;2022-12-29T09:45:24;99491.34;;;0.49;68.72
76205;BME280;64986;55.672;37.628;2022-12-29T09:47:54;99491.22;;;2.58;66.49
76205;BME280;64986;55.672;37.628;2022-12-29T09:50:24;99490.97;;;3.03;62.50
76205;BME280;64986;55.672;37.628;2022-12-29T09:53:09;99502.91;;;3.22;64.64
76205;BME280;64986;55.672;37.628;2022-12-29T09:55:42;99493.03;;;1.78;65.07
76205;BME280;64986;55.672;37.628;2022-12-29T09:58:15;99491.19;;;1.25;66.39
76205;BME280;64986;55.672;37.628;2022-12-29T10:01:06;99502.28;;;0.80;64.75
76205;BME280;64986;55.672;37.628;2022-12-29T10:06:26;99509.25;;;-0.45;69.73
76205;BME280;64986;55.672;37.628;2022-12-29T10:11:50;99505.00;;;-1.05;71.41
76205;BME280;64986;55.672;37.628;2022-12-29T10:24:56;99495.38;;;-0.94;72.57
76205;BME280;64986;55.672;37.628;2022-12-29T10:27:31;99502.06;;;-0.81;72.31
76205;BME280;64986;55.672;37.628;2022-12-29T10:29:59;99511.63;;;-0.72;72.13
76205;BME280;64986;55.672;37.628;2022-12-29T10:32:39;99513.00;;;-0.59;72.12
76205;BME280;64986;55.672;37.628;2022-12-29T10:35:24;99505.34;;;-0.70;72.03
76205;BME280;64986;55.672;37.628;2022-12-29T10:38:12;99503.34;;;-0.66;72.03
76205;BME280;64986;55.672;37.628;2022-12-29T10:40:49;99512.03;;;-0.67;72.16
76205;BME280;64986;55.672;37.628;2022-12-29T10:43:45;99505.94;;;-0.66;71.31
76205;BME280;64986;55.672;37.628;2022-12-29T10:46:21;99506.31;;;-0.61;71.33
76205;BME280;64986;55.672;37.628;2022-12-29T10:48:48;99510.81;;;-0.63;71.79
76205;BME280;64986;55.672;37.628;2022-12-29T10:51:21;99506.00;;;-0.77;71.70
76205;BME280;64986;55.672;37.628;2022-12-29T10:53:52;99514.41;;;-0.95;72.09
76205;BME280;64986;55.672;37.628;2022-12-29T10:56:34;99512.59;;;-1.04;72.77
76205;BME280;64986;55.672;37.628;2022-12-29T10:59:17;99513.28;;;-1.02;72.68
76205;BME280;64986;55.672;37.628;2022-12-29T11:04:59;99504.34;;;-0.98;72.27
76205;BME280;64986;55.672;37.628;2022-12-29T11:07:50;99493.72;;;-0.95;73.15
76205;BME280;64986;55.672;37.628;2022-12-29T11:15:21;99479.13;;;-0.75;73.10
76205;BME280;64986;55.672;37.628;2022-12-29T11:17:52;99469.88;;;-0.68;72.71
76205;BME280;64986;55.672;37.628;2022-12-29T11:20:28;99481.03;;;-0.48;72.78
76205;BME280;64986;55.672;37.628;2022-12-29T11:22:54;99488.28;;;-0.32;72.97
76205;BME280;64986;55.672;37.628;2022-12-29T11:25:20;99481.47;;;-0.23;72.56
76205;BME280;64986;55.672;37.628;2022-12-29T11:27:59;99482.56;;;-0.16;72.40
76205;BME280;64986;55.672;37.628;2022-12-29T11:30:28;99477.09;;;-0.23;72.33
76205;BME280;64986;55.672;37.628;2022-12-29T11:32:55;99484.88;;;-0.23;72.36
76205;BME280;64986;55.672;37.628;2022-12-29T11:35:40;99486.66;;;-0.14;71.87
76205;BME280;64986;55.672;37.628;2022-12-29T11:38:23;99481.75;;;-0.17;72.16
76205;BME280;64986;55.672;37.628;2022-12-29T11:40:50;99483.50;;;-0.46;72.49
76205;BME280;64986;55.672;37.628;2022-12-29T11:43:25;99474.53;;;-0.52;72.82
76205;BME280;64986;55.672;37.628;2022-12-29T11:45:54;99485.25;;;-0.57;73.21
76205;BME280;64986;55.672;37.628;2022-12-29T11:48:22;99489.91;;;-0.50;73.19
76205;BME280;64986;55.672;37.628;2022-12-29T11:50:57;99488.66;;;-0.56;72.96
76205;BME280;64986;55.672;37.628;2022-12-29T11:53:28;99492.88;;;-0.65;73.21
76205;BME280;64986;55.672;37.628;2022-12-29T11:56:09;99495.06;;;-0.60;73.29
76205;BME280;64986;55.672;37.628;2022-12-29T11:58:37;99498.56;;;-0.61;73.61
76205;BME280;64986;55.672;37.628;2022-12-29T12:03:45;99501.59;;;-0.56;73.71
76205;BME280;64986;55.672;37.628;2022-12-29T12:06:15;99507.03;;;-0.49;73.70
76205;BME280;64986;55.672;37.628;2022-12-29T12:08:53;99514.66;;;-0.48;73.58
76205;BME280;64986;55.672;37.628;2022-12-29T12:11:26;99511.91;;;-0.56;73.83
76205;BME280;64986;55.672;37.628;2022-12-29T12:14:02;99508.41;;;-0.45;73.22
76205;BME280;64986;55.672;37.628;2022-12-29T12:16:43;99502.53;;;-0.67;73.70
76205;BME280;64986;55.672;37.628;2022-12-29T12:19:34;99519.41;;;-0.53;73.83
76205;BME280;64986;55.672;37.628;2022-12-29T12:22:12;99520.78;;;-0.49;73.63
76205;BME280;64986;55.672;37.628;2022-12-29T12:25:04;99511.25;;;-0.58;74.31
76205;BME280;64986;55.672;37.628;2022-12-29T12:27:42;99505.13;;;-0.57;73.97
76205;BME280;64986;55.672;37.628;2022-12-29T12:30:22;99509.34;;;-0.56;74.56
76205;BME280;64986;55.672;37.628;2022-12-29T12:33:03;99505.22;;;-0.68;74.06
76205;BME280;64986;55.672;37.628;2022-12-29T12:38:55;99501.63;;;-0.87;74.43
76205;BME280;64986;55.672;37.628;2022-12-29T12:44:10;99508.31;;;-0.84;74.83
76205;BME280;64986;55.672;37.628;2022-12-29T13:00:19;99499.88;;;-0.86;75.60
76205;BME280;64986;55.672;37.628;2022-12-29T13:03:03;99500.16;;;-0.79;75.83
76205;BME280;64986;55.672;37.628;2022-12-29T13:06:31;99502.31;;;-0.85;76.08
76205;BME280;64986;55.672;37.628;2022-12-29T13:25:21;99514.81;;;-0.40;76.10
76205;BME280;64986;55.672;37.628;2022-12-29T13:28:27;99515.22;;;-0.35;76.29
76205;BME280;64986;55.672;37.628;2022-12-29T13:31:16;99513.06;;;-0.30;76.08
76205;BME280;64986;55.672;37.628;2022-12-29T13:36:39;99510.63;;;-0.21;75.59
76205;BME280;64986;55.672;37.628;2022-12-29T13:39:27;99510.47;;;-0.30;76.32
76205;BME280;64986;55.672;37.628;2022-12-29T13:41:56;99507.47;;;-0.35;75.63
76205;BME280;64986;55.672;37.628;2022-12-29T13:44:33;99512.13;;;-0.29;75.60
76205;BME280;64986;55.672;37.628;2022-12-29T13:47:06;99505.56;;;-0.23;75.50
76205;BME280;64986;55.672;37.628;2022-12-29T13:49:37;99502.31;;;-0.25;75.29
76205;BME280;64986;55.672;37.628;2022-12-29T13:52:15;99489.50;;;-0.26;75.27
76205;BME280;64986;55.672;37.628;2022-12-29T13:54:53;99501.09;;;-0.21;75.45
76205;BME280;64986;55.672;37.628;2022-12-29T14:00:14;99503.81;;;-0.22;75.24
76205;BME280;64986;55.672;37.628;2022-12-29T14:07:48;99503.69;;;-0.21;75.46
76205;BME280;64986;55.672;37.628;2022-12-29T14:10:32;99510.06;;;-0.15;75.70
76205;BME280;64986;55.672;37.628;2022-12-29T14:13:18;99505.72;;;-0.15;75.62
76205;BME280;64986;55.672;37.628;2022-12-29T14:15:52;99505.16;;;-0.18;75.57
76205;BME280;64986;55.672;37.628;2022-12-29T14:18:23;99502.72;;;-0.20;75.51
76205;BME280;64986;55.672;37.628;2022-12-29T14:21:08;99501.38;;;-0.14;75.49
76205;BME280;64986;55.672;37.628;2022-12-29T14:23:36;99508.72;;;-0.10;75.48
76205;BME280;64986;55.672;37.628;2022-12-29T14:28:39;99507.34;;;-0.14;75.49
76205;BME280;64986;55.672;37.628;2022-12-29T14:36:39;99502.59;;;-0.18;75.68
76205;BME280;64986;55.672;37.628;2022-12-29T14:44:34;99513.59;;;-0.16;75.34
76205;BME280;64986;55.672;37.628;2022-12-29T14:47:18;99513.34;;;-0.13;75.12
76205;BME280;64986;55.672;37.628;2022-12-29T14:49:45;99516.06;;;-0.15;75.20
76205;BME280;64986;55.672;37.628;2022-12-29T14:52:23;99509.81;;;-0.12;75.30
76205;BME280;64986;55.672;37.628;2022-12-29T14:57:43;99504.78;;;-0.14;75.12
76205;BME280;64986;55.672;37.628;2022-12-29T15:00:24;99504.78;;;-0.14;74.85
76205;BME280;64986;55.672;37.628;2022-12-29T15:03:22;99505.03;;;-0.17;74.92
76205;BME280;64986;55.672;37.628;2022-12-29T15:08:32;99516.88;;;-0.24;74.89
76205;BME280;64986;55.672;37.628;2022-12-29T15:13:46;99507.91;;;-0.30;74.77
76205;BME280;64986;55.672;37.628;2022-12-29T15:16:33;99517.00;;;-0.25;74.92
76205;BME280;64986;55.672;37.628;2022-12-29T15:19:01;99509.66;;;-0.30;74.92
76205;BME280;64986;55.672;37.628;2022-12-29T15:21:32;99516.31;;;-0.28;74.94
76205;BME280;64986;55.672;37.628;2022-12-29T15:23:59;99512.78;;;-0.26;74.95